Jaslovské Bohunice, Slovensko

07:58 AM CET dna 04 Marec, 2015 (GMT +0100)
ITRNAVAM3 | Change Station
CLOSE
Current Station
Personal Weather Stations
Location: Malzenice, TRNAVA
Nad. výška:: 482 ft
Najbližšie meteo stanice

Elev 482 ft 48.45 °N, 17.67 °E | Updated 4 minutes ago

Light Snow
Slabé sneženie
34.4 °F
Feels Like 34 °F
N
0.0
Vietor meniaci sa Vietor from Juzný
Gusts 1.0 mph

Dnes
High -- | Low -- °F
--% Chance of Precip.
Yesterday
High -- | Low -- °F
Precip. -- in
6:25 AM 5:37 PM
Pribúdajúci mesiac, 2. fáza, 98% visible
Tlak 30.09 in
Viditeľnosť 5.0 mile
Oblačnost Few 1700 ft
Ojedinelé mraky 2200 ft
Zamračené 3700 ft
Pocitová teplota 34 °F
Rosný bod 28 °F
Vlhkosť 78%
Rainfall 0.00 in
Výška snehu Not available.
UV 0 out of 12
Pollen Not available.
Air Quality Not available.
Flu Activity Not available.
METAR LKKU 040651Z 22008KT 180V260 8000 -SN FEW017 SCT022 OVC037 02/M00 Q1019

More Conditions Fewer Conditions

Tlak 30.09 in
Viditeľnosť 5.0 mile
Oblačnost Few 1700 ft
Ojedinelé mraky 2200 ft
Zamračené 3700 ft
Pocitová teplota 34 °F
Rosný bod 28 °F
Vlhkosť 78%
Rainfall 0.00 in
Výška snehu Not available.
UV 0 out of 12
Pollen Not available.
Air Quality Not available.
Flu Activity Not available.
METAR LKKU 040651Z 22008KT 180V260 8000 -SN FEW017 SCT022 OVC037 02/M00 Q1019

More Conditions Fewer Conditions

10-Day Weather Forecast

Almanac

Astronómia

Mar. 04, 2015 Východ Západ
Aktuálny čas
Civil Twilight
Nautical Twilight
Astronomical Twilight
Mesiac
Length Of Visible Light
Dĺžka dňa
Tomorrow will be .
, % of the Moon is Illuminated

Today's Extremes

Country Highs Country Lows

Community

WunderPhotos

Upload Photos

1,802,402 photos uploaded!

WunderBlogs® & News

Nearby

Air Quality

  Air Quality AQ Index Pollutant
Not available.

Výska snehu

Station Depth Nad. výška:

Aktivita zemetrasenia

Mesto Distance Mag. Time & Date
Minimum magnitude displayed is 2.5.

Coastal Water Temperatures

Miesto Teplota

Najbližšie meteo stanice